createdAt,value
2022-09-04T00:02:11.715Z,1.70
2022-09-04T00:04:47.813Z,1.90
2022-09-04T00:07:26.316Z,1.75
2022-09-04T00:10:09.778Z,1.63
2022-09-04T00:12:57.670Z,1.58
2022-09-04T00:15:36.395Z,1.50
2022-09-04T00:18:11.253Z,1.50
2022-09-04T00:20:45.783Z,1.50
2022-09-04T00:23:21.292Z,2.17
2022-09-04T00:26:00.472Z,1.75
2022-09-04T00:28:37.581Z,1.77
2022-09-04T00:31:24.619Z,2.03
2022-09-04T00:34:07.511Z,1.70
2022-09-04T00:36:43.360Z,1.70
2022-09-04T00:39:18.215Z,1.77
2022-09-04T00:42:07.376Z,1.70
2022-09-04T00:45:02.156Z,1.45
2022-09-04T00:48:00.705Z,1.52
2022-09-04T00:50:57.521Z,2.03
2022-09-04T00:54:01.521Z,1.50
2022-09-04T00:56:55.667Z,1.90
2022-09-04T00:59:40.340Z,1.50
2022-09-04T01:02:21.043Z,1.60
2022-09-04T01:05:01.772Z,1.50
2022-09-04T01:07:50.388Z,1.60
2022-09-04T01:10:33.154Z,1.80
2022-09-04T01:13:13.009Z,2.08
2022-09-04T01:15:48.004Z,1.55
2022-09-04T01:18:25.205Z,2.00
2022-09-04T01:21:21.987Z,1.83
2022-09-04T01:24:22.543Z,1.70
2022-09-04T01:27:06.495Z,1.63
2022-09-04T01:29:46.556Z,1.92
2022-09-04T01:32:26.549Z,1.65
2022-09-04T01:35:05.678Z,1.88
2022-09-04T01:37:47.724Z,1.75
2022-09-04T01:40:36.302Z,1.73
2022-09-04T01:43:11.528Z,2.40
2022-09-04T01:46:07.995Z,1.80
2022-09-04T01:48:46.939Z,1.73
2022-09-04T01:51:27.558Z,2.50
2022-09-04T01:54:13.753Z,2.00
2022-09-04T01:56:48.496Z,1.55
2022-09-04T01:59:29.609Z,1.50
2022-09-04T02:02:05.298Z,1.95
2022-09-04T02:04:43.075Z,2.00
2022-09-04T02:07:26.231Z,2.45
2022-09-04T02:10:20.826Z,1.50
2022-09-04T02:13:01.016Z,1.70
2022-09-04T02:15:43.268Z,1.90
2022-09-04T02:18:21.748Z,2.00
2022-09-04T02:20:59.472Z,1.75
2022-09-04T02:23:38.111Z,1.80
2022-09-04T02:26:16.363Z,1.92
2022-09-04T02:28:58.591Z,1.60
2022-09-04T02:31:39.691Z,2.22
2022-09-04T02:34:12.461Z,2.30
2022-09-04T02:36:50.640Z,1.63
2022-09-04T02:39:38.197Z,2.03
2022-09-04T02:42:18.349Z,1.80
2022-09-04T02:44:58.379Z,1.50
2022-09-04T02:47:46.022Z,1.80
2022-09-04T02:50:31.541Z,1.92
2022-09-04T02:53:16.666Z,1.83
2022-09-04T02:55:59.300Z,1.95
2022-09-04T02:58:39.799Z,2.10
2022-09-04T03:01:16.591Z,1.75
2022-09-04T03:03:56.582Z,1.92
2022-09-04T03:06:35.977Z,1.98
2022-09-04T03:09:12.076Z,2.05
2022-09-04T03:11:47.195Z,2.47
2022-09-04T03:14:24.795Z,1.85
2022-09-04T03:17:00.228Z,1.98
2022-09-04T03:19:43.220Z,1.70
2022-09-04T03:22:21.229Z,2.00
2022-09-04T03:25:07.948Z,2.45
2022-09-04T03:27:38.419Z,2.10
2022-09-04T03:30:11.585Z,2.22
2022-09-04T03:32:52.673Z,2.40
2022-09-04T03:35:42.687Z,2.10
2022-09-04T03:38:22.181Z,2.00
2022-09-04T03:41:06.342Z,2.28
2022-09-04T03:44:01.772Z,1.92
2022-09-04T03:46:46.096Z,2.00
2022-09-04T03:49:28.922Z,2.38
2022-09-04T03:52:08.803Z,2.47
2022-09-04T03:55:13.896Z,2.10
2022-09-04T03:58:01.500Z,2.00
2022-09-04T04:00:41.569Z,2.00
2022-09-04T04:03:31.513Z,2.00
2022-09-04T04:06:13.150Z,2.00
2022-09-04T04:09:25.917Z,1.70
2022-09-04T04:12:25.352Z,2.25
2022-09-04T04:15:10.322Z,2.50
2022-09-04T04:18:07.332Z,2.08
2022-09-04T04:20:46.388Z,2.10
2022-09-04T04:23:48.834Z,1.73
2022-09-04T04:26:32.154Z,1.98
2022-09-04T04:29:30.345Z,1.85
2022-09-04T04:32:16.584Z,2.58
2022-09-04T04:35:02.367Z,2.30
2022-09-04T04:37:46.900Z,2.30
2022-09-04T04:40:24.900Z,2.08
2022-09-04T04:43:05.038Z,2.05
2022-09-04T04:45:54.344Z,2.10
2022-09-04T04:48:46.781Z,2.25
2022-09-04T04:51:40.898Z,2.47
2022-09-04T04:54:28.733Z,2.55
2022-09-04T04:57:05.299Z,2.22
2022-09-04T04:59:46.918Z,2.17
2022-09-04T05:02:23.579Z,2.65
2022-09-04T05:05:02.941Z,2.40
2022-09-04T05:07:39.921Z,2.22
2022-09-04T05:10:22.662Z,2.40
2022-09-04T05:13:02.092Z,2.40
2022-09-04T05:16:05.198Z,2.30
2022-09-04T05:18:37.475Z,2.00
2022-09-04T05:21:14.691Z,2.58
2022-09-04T05:23:54.386Z,2.33
2022-09-04T05:26:32.337Z,2.25
2022-09-04T05:29:09.136Z,2.35
2022-09-04T05:31:52.561Z,2.50
2022-09-04T05:34:34.140Z,2.10
2022-09-04T05:37:13.827Z,2.08
2022-09-04T05:40:01.008Z,3.20
2022-09-04T05:42:48.242Z,2.33
2022-09-04T05:45:27.268Z,2.20
2022-09-04T05:48:11.148Z,2.28
2022-09-04T05:51:01.433Z,2.58
2022-09-04T05:54:08.700Z,2.25
2022-09-04T05:57:07.109Z,2.40
2022-09-04T05:59:56.427Z,2.13
2022-09-04T06:02:59.903Z,2.28
2022-09-04T06:05:46.236Z,2.40
2022-09-04T06:08:29.247Z,2.30
2022-09-04T06:11:27.838Z,2.15
2022-09-04T06:14:13.047Z,2.40
2022-09-04T06:17:01.158Z,2.10
2022-09-04T06:19:48.119Z,2.28
2022-09-04T06:22:41.936Z,2.30
2022-09-04T06:25:41.368Z,2.28
2022-09-04T06:28:48.625Z,2.38
2022-09-04T06:31:49.181Z,2.80
2022-09-04T06:34:25.782Z,2.38
2022-09-04T06:37:09.950Z,2.40
2022-09-04T06:39:58.982Z,2.22
2022-09-04T06:42:43.125Z,2.42
2022-09-04T06:45:25.987Z,2.70
2022-09-04T06:48:11.388Z,2.50
2022-09-04T06:50:51.616Z,2.25
2022-09-04T06:53:31.302Z,2.78
2022-09-04T06:56:19.136Z,2.50
2022-09-04T06:59:13.956Z,2.38
2022-09-04T07:01:54.710Z,2.33
2022-09-04T07:04:37.770Z,2.40
2022-09-04T07:07:19.251Z,2.45
2022-09-04T07:09:52.345Z,2.78
2022-09-04T07:12:49.909Z,2.70
2022-09-04T07:15:40.470Z,2.42
2022-09-04T07:18:26.462Z,2.45
2022-09-04T07:21:06.179Z,2.67
2022-09-04T07:23:47.661Z,2.55
2022-09-04T07:26:26.159Z,2.50
2022-09-04T07:29:16.322Z,2.30
2022-09-04T07:31:55.513Z,2.40
2022-09-04T07:34:30.887Z,2.45
2022-09-04T07:37:07.881Z,2.53
2022-09-04T07:39:45.672Z,2.72
2022-09-04T07:42:22.679Z,2.70
2022-09-04T07:45:02.843Z,2.40
2022-09-04T07:47:38.419Z,2.80
2022-09-04T07:50:13.445Z,2.55
2022-09-04T07:53:03.682Z,3.00
2022-09-04T07:55:42.044Z,2.20
2022-09-04T07:58:49.841Z,2.22
2022-09-04T08:01:45.843Z,2.40
2022-09-04T08:04:38.275Z,2.63
2022-09-04T08:07:15.717Z,2.78
2022-09-04T08:10:09.656Z,2.22
2022-09-04T08:13:10.012Z,2.42
2022-09-04T08:15:46.578Z,2.22
2022-09-04T08:18:32.788Z,2.85
2022-09-04T08:21:16.398Z,2.58
2022-09-04T08:24:40.802Z,2.55
2022-09-04T08:27:21.701Z,2.30
2022-09-04T08:30:06.808Z,2.67
2022-09-04T08:33:11.054Z,2.42
2022-09-04T08:35:55.321Z,2.05
2022-09-04T08:38:41.449Z,2.20
2022-09-04T08:41:34.947Z,2.35
2022-09-04T08:44:41.836Z,2.10
2022-09-04T08:47:41.476Z,2.50
2022-09-04T08:50:37.384Z,2.78
2022-09-04T08:53:36.003Z,2.60
2022-09-04T08:56:26.135Z,1.92
2022-09-04T08:59:26.828Z,2.05
2022-09-04T09:02:32.398Z,2.60
2022-09-04T09:05:22.158Z,1.63
2022-09-04T09:08:19.073Z,2.65
2022-09-04T09:11:19.472Z,2.40
2022-09-04T09:14:12.741Z,2.00
2022-09-04T09:16:46.920Z,2.30
2022-09-04T09:19:30.942Z,2.40
2022-09-04T09:22:18.131Z,2.08
2022-09-04T09:25:16.215Z,1.90
2022-09-04T09:28:18.038Z,1.77
2022-09-04T09:31:13.335Z,2.00
2022-09-04T09:34:13.122Z,2.38
2022-09-04T09:37:21.352Z,1.58
2022-09-04T09:40:18.739Z,2.03
2022-09-04T09:43:27.259Z,1.85
2022-09-04T09:46:31.865Z,1.83
2022-09-04T09:49:51.636Z,2.03
2022-09-04T09:52:39.097Z,2.30
2022-09-04T09:55:23.876Z,1.65
2022-09-04T09:58:29.486Z,2.10
2022-09-04T10:01:15.579Z,2.47
2022-09-04T10:04:19.503Z,2.10
2022-09-04T10:07:21.523Z,2.30
2022-09-04T10:10:27.412Z,1.90
2022-09-04T10:13:28.996Z,1.90
2022-09-04T10:16:28.590Z,2.10
2022-09-04T10:19:39.340Z,1.73
2022-09-04T10:22:47.276Z,1.90
2022-09-04T10:25:46.882Z,2.10
2022-09-04T10:28:40.963Z,2.10
2022-09-04T10:31:44.717Z,2.05
2022-09-04T10:34:39.760Z,2.00
2022-09-04T10:37:27.660Z,2.47
2022-09-04T10:40:27.813Z,2.00
2022-09-04T10:43:13.807Z,1.52
2022-09-04T10:45:49.244Z,1.88
2022-09-04T10:48:42.808Z,2.10
2022-09-04T10:51:49.817Z,2.10
2022-09-04T10:54:51.045Z,2.10
2022-09-04T10:57:40.103Z,1.90
2022-09-04T11:00:14.030Z,1.90
2022-09-04T11:03:19.655Z,2.08
2022-09-04T11:06:12.823Z,1.77
2022-09-04T11:09:07.019Z,1.88
2022-09-04T11:12:01.132Z,1.70
2022-09-04T11:14:55.009Z,1.60
2022-09-04T11:17:42.962Z,1.80
2022-09-04T11:20:45.236Z,2.20
2022-09-04T11:23:52.780Z,2.28
2022-09-04T11:27:08.097Z,1.80
2022-09-04T11:29:55.430Z,1.85
2022-09-04T11:32:56.225Z,1.63
2022-09-04T11:36:01.552Z,1.90
2022-09-04T11:38:59.216Z,1.80
2022-09-04T11:42:04.054Z,1.70
2022-09-04T11:45:06.296Z,1.90
2022-09-04T11:48:09.478Z,1.83
2022-09-04T11:51:01.103Z,1.83
2022-09-04T11:53:50.104Z,1.60
2022-09-04T11:56:36.499Z,2.17
2022-09-04T11:59:35.175Z,2.05
2022-09-04T12:02:46.429Z,2.00
2022-09-04T12:05:43.402Z,2.10
2022-09-04T12:08:29.106Z,1.73
2022-09-04T12:11:34.619Z,1.60
2022-09-04T12:14:20.699Z,1.58
2022-09-04T12:17:25.825Z,1.75
2022-09-04T12:20:24.491Z,1.40
2022-09-04T12:23:21.420Z,1.85
2022-09-04T12:26:17.448Z,1.83
2022-09-04T12:29:14.964Z,1.50
2022-09-04T12:32:15.214Z,2.00
2022-09-04T12:35:31.598Z,1.90
2022-09-04T12:38:34.814Z,1.65
2022-09-04T12:41:12.300Z,1.92
2022-09-04T12:43:53.971Z,1.80
2022-09-04T12:46:38.257Z,2.00
2022-09-04T12:49:31.492Z,1.90
2022-09-04T12:52:18.585Z,2.20
2022-09-04T12:55:04.486Z,1.80
2022-09-04T12:57:46.784Z,1.90
2022-09-04T13:00:19.236Z,2.03
2022-09-04T13:03:03.600Z,2.20
2022-09-04T13:05:55.906Z,1.95
2022-09-04T13:08:38.610Z,1.73
2022-09-04T13:11:21.822Z,1.90
2022-09-04T13:14:07.395Z,1.50
2022-09-04T13:16:45.724Z,1.80
2022-09-04T13:19:25.630Z,1.90
2022-09-04T13:22:12.577Z,1.77
2022-09-04T13:24:57.957Z,2.00
2022-09-04T13:27:49.414Z,1.88
2022-09-04T13:30:24.673Z,1.92
2022-09-04T13:33:05.669Z,1.90
2022-09-04T13:35:59.417Z,1.52
2022-09-04T13:38:42.770Z,1.90
2022-09-04T13:41:42.702Z,2.35
2022-09-04T13:44:41.320Z,1.83
2022-09-04T13:47:16.315Z,1.98
2022-09-04T13:49:56.396Z,1.50
2022-09-04T13:52:33.539Z,1.83
2022-09-04T13:55:08.536Z,1.52
2022-09-04T13:57:43.124Z,1.80
2022-09-04T14:00:18.450Z,2.17
2022-09-04T14:02:49.457Z,1.85
2022-09-04T14:05:24.495Z,1.90
2022-09-04T14:08:02.991Z,1.70
2022-09-04T14:10:46.662Z,2.15
2022-09-04T14:13:34.066Z,2.28
2022-09-04T14:16:14.351Z,1.90
2022-09-04T14:19:12.342Z,1.70
2022-09-04T14:22:17.503Z,1.75
2022-09-04T14:24:56.455Z,1.90
2022-09-04T14:27:36.264Z,1.80
2022-09-04T14:30:10.342Z,2.03
2022-09-04T14:32:56.872Z,1.90
2022-09-04T14:35:36.087Z,1.80
2022-09-04T14:38:49.252Z,1.73
2022-09-04T14:41:35.937Z,1.80
2022-09-04T14:44:19.265Z,1.85
2022-09-04T14:46:59.684Z,2.08
2022-09-04T14:49:34.720Z,1.90
2022-09-04T14:52:12.672Z,1.65
2022-09-04T14:54:46.476Z,1.88
2022-09-04T14:57:23.870Z,2.20
2022-09-04T15:00:05.003Z,2.13
2022-09-04T15:02:40.181Z,2.03
2022-09-04T15:05:22.955Z,2.40
2022-09-04T15:08:00.137Z,1.90
2022-09-04T15:10:36.766Z,2.70
2022-09-04T15:13:45.443Z,2.20
2022-09-04T15:16:24.570Z,2.60
2022-09-04T15:19:07.111Z,2.10
2022-09-04T15:21:49.492Z,2.10
2022-09-04T15:24:27.163Z,2.10
2022-09-04T15:27:05.717Z,1.80
2022-09-04T15:29:41.801Z,1.90
2022-09-04T15:32:21.895Z,2.38
2022-09-04T15:34:52.775Z,2.40
2022-09-04T15:37:29.540Z,2.75
2022-09-04T15:40:12.375Z,2.30
2022-09-04T15:42:48.281Z,2.00
2022-09-04T15:45:26.175Z,2.20
2022-09-04T15:48:30.807Z,2.47
2022-09-04T15:51:12.816Z,2.33
2022-09-04T15:53:54.136Z,2.30
2022-09-04T15:56:35.592Z,2.17
2022-09-04T15:59:16.068Z,2.28
2022-09-04T16:01:53.053Z,2.58
2022-09-04T16:04:30.053Z,2.53
2022-09-04T16:07:22.379Z,3.05
2022-09-04T16:09:59.303Z,2.05
2022-09-04T16:12:34.041Z,2.55
2022-09-04T16:15:11.059Z,2.38
2022-09-04T16:17:46.084Z,2.47
2022-09-04T16:20:24.772Z,2.75
2022-09-04T16:22:58.666Z,2.83
2022-09-04T16:25:33.657Z,2.63
2022-09-04T16:28:09.005Z,2.58
2022-09-04T16:30:43.434Z,2.30
2022-09-04T16:33:28.131Z,2.72
2022-09-04T16:36:04.907Z,2.50
2022-09-04T16:38:40.727Z,2.22
2022-09-04T16:41:19.169Z,2.40
2022-09-04T16:44:11.282Z,2.40
2022-09-04T16:46:51.643Z,2.22
2022-09-04T16:49:28.149Z,2.72
2022-09-04T16:52:06.057Z,2.20
2022-09-04T16:54:49.484Z,2.70
2022-09-04T16:57:26.541Z,2.60
2022-09-04T17:00:00.857Z,2.50
2022-09-04T17:02:49.030Z,2.10
2022-09-04T17:05:28.556Z,2.33
2022-09-04T17:08:05.239Z,2.60
2022-09-04T17:10:43.141Z,2.45
2022-09-04T17:13:27.755Z,2.80
2022-09-04T17:16:02.946Z,2.38
2022-09-04T17:18:35.801Z,2.38
2022-09-04T17:25:18.217Z,2.90
2022-09-04T17:29:01.370Z,2.15
2022-09-04T17:29:19.056Z,2.45
2022-09-04T17:30:31.505Z,2.70
2022-09-04T17:40:44.054Z,2.38
2022-09-04T17:40:47.149Z,2.40
2022-09-04T17:40:50.438Z,3.10
2022-09-04T17:42:09.982Z,2.50
2022-09-04T17:44:50.676Z,2.72
2022-09-04T17:47:34.043Z,2.92
2022-09-04T17:50:05.167Z,2.58
2022-09-04T17:52:38.987Z,2.67
2022-09-04T17:55:14.138Z,3.03
2022-09-04T17:57:56.846Z,2.50
2022-09-04T18:00:32.188Z,2.85
2022-09-04T18:03:14.348Z,2.65
2022-09-04T18:05:53.195Z,2.38
2022-09-04T18:08:32.854Z,3.13
2022-09-04T18:11:09.563Z,2.55
2022-09-04T18:13:45.861Z,3.03
2022-09-04T18:16:47.812Z,3.10
2022-09-04T18:19:43.983Z,3.20
2022-09-04T18:22:33.592Z,2.70
2022-09-04T18:25:17.233Z,2.85
2022-09-04T18:28:06.580Z,2.95
2022-09-04T18:37:10.333Z,3.03
2022-09-04T18:37:19.365Z,2.65
2022-09-04T18:37:26.390Z,2.75
2022-09-04T18:39:50.457Z,2.67
2022-09-04T18:46:50.167Z,2.83
2022-09-04T18:50:34.149Z,3.22
2022-09-04T18:50:44.415Z,3.20
2022-09-04T18:51:25.286Z,3.13
2022-09-04T18:54:03.345Z,3.10
2022-09-04T18:56:38.984Z,3.35
2022-09-04T18:59:14.417Z,2.85
2022-09-04T19:01:47.970Z,3.00
2022-09-04T19:04:36.688Z,3.08
2022-09-04T19:07:11.602Z,3.25
2022-09-04T19:10:10.608Z,2.75
2022-09-04T19:13:02.053Z,2.90
2022-09-04T19:15:49.726Z,2.63
2022-09-04T19:18:27.460Z,2.55
2022-09-04T19:21:14.453Z,2.80
2022-09-04T19:23:50.350Z,3.10
2022-09-04T19:26:34.998Z,2.85
2022-09-04T19:29:12.119Z,3.03
2022-09-04T19:31:46.410Z,2.60
2022-09-04T19:34:23.369Z,2.60
2022-09-04T19:37:20.409Z,3.00
2022-09-04T19:45:05.716Z,2.65
2022-09-04T19:45:59.935Z,2.80
2022-09-04T19:46:17.544Z,2.60
2022-09-04T19:49:34.814Z,2.50
2022-09-04T19:53:24.134Z,2.70
2022-09-04T19:54:37.902Z,2.58
2022-09-04T19:57:32.857Z,2.63
2022-09-04T20:00:38.365Z,2.88
2022-09-04T20:03:06.431Z,2.80
2022-09-04T20:05:40.943Z,2.50
2022-09-04T20:08:19.149Z,2.90
2022-09-04T20:10:51.332Z,2.80
2022-09-04T20:13:28.132Z,2.85
2022-09-04T20:16:07.097Z,2.50
2022-09-04T20:18:40.814Z,2.47
2022-09-04T20:21:18.120Z,2.65
2022-09-04T20:23:55.324Z,2.83
2022-09-04T20:26:31.167Z,2.65
2022-09-04T20:29:17.659Z,2.75
2022-09-04T20:31:55.575Z,2.60
2022-09-04T20:34:31.633Z,2.50
2022-09-04T20:37:23.231Z,2.85
2022-09-04T20:40:05.025Z,2.53
2022-09-04T20:42:41.362Z,2.40
2022-09-04T20:52:02.864Z,3.03
2022-09-04T20:52:51.055Z,3.00
2022-09-04T20:53:05.827Z,2.95
2022-09-04T20:54:35.190Z,2.88
2022-09-04T21:01:41.290Z,2.88
2022-09-04T21:03:07.910Z,2.75
2022-09-04T21:03:28.138Z,2.90
2022-09-04T21:06:16.131Z,3.00
2022-09-04T21:08:51.287Z,2.45
2022-09-04T21:11:40.802Z,2.63
2022-09-04T21:14:19.485Z,2.90
2022-09-04T21:17:33.504Z,2.75
2022-09-04T21:20:28.577Z,2.60
2022-09-04T21:23:23.766Z,3.30
2022-09-04T21:26:06.839Z,2.80
2022-09-04T21:29:10.683Z,2.95
2022-09-04T21:31:56.844Z,3.05
2022-09-04T21:34:55.348Z,2.85
2022-09-04T21:37:32.676Z,2.92
2022-09-04T21:40:50.424Z,2.72
2022-09-04T21:43:45.275Z,2.83
2022-09-04T21:46:41.963Z,3.45
2022-09-04T21:49:39.412Z,3.40
2022-09-04T21:52:28.791Z,2.92
2022-09-04T21:57:14.938Z,2.95
2022-09-04T22:02:28.728Z,3.30
2022-09-04T22:02:37.308Z,3.50
2022-09-04T22:04:20.293Z,2.58
2022-09-04T22:10:00.524Z,3.15
2022-09-04T22:13:33.169Z,2.90
2022-09-04T22:13:48.112Z,3.22
2022-09-04T22:16:34.374Z,3.28
2022-09-04T22:19:28.383Z,3.20
2022-09-04T22:22:06.008Z,2.85
2022-09-04T22:25:05.682Z,3.20
2022-09-04T22:28:09.302Z,3.03
2022-09-04T22:31:03.669Z,3.08
2022-09-04T22:34:15.873Z,3.80
2022-09-04T22:37:25.245Z,3.42
2022-09-04T22:40:12.696Z,2.40
2022-09-04T22:42:50.917Z,3.20
2022-09-04T22:46:02.062Z,3.53
2022-09-04T22:49:12.624Z,3.72
2022-09-04T22:52:10.061Z,3.10
2022-09-04T22:54:56.918Z,3.33
2022-09-04T22:57:43.851Z,3.50
2022-09-04T23:00:18.971Z,2.97
2022-09-04T23:03:29.792Z,3.70
2022-09-04T23:10:24.673Z,2.92
2022-09-04T23:13:51.942Z,2.97
2022-09-04T23:13:57.109Z,2.83
2022-09-04T23:15:56.936Z,3.67
2022-09-04T23:21:47.973Z,3.15
2022-09-04T23:26:42.066Z,2.88
2022-09-04T23:26:43.055Z,3.47
2022-09-04T23:28:28.267Z,3.15
2022-09-04T23:31:19.770Z,2.90
2022-09-04T23:34:21.418Z,3.75
2022-09-04T23:37:14.667Z,3.03
2022-09-04T23:39:56.746Z,3.70
2022-09-04T23:42:43.789Z,2.90
2022-09-04T23:45:33.559Z,3.95
2022-09-04T23:48:33.168Z,3.35
2022-09-04T23:51:15.497Z,3.65
2022-09-04T23:53:55.193Z,3.00
2022-09-04T23:56:29.533Z,3.20
2022-09-04T23:59:23.656Z,3.30
